Currently 63°F in Simi Valley, California, USA
63°F
70°F / 63°F
1 mph W
0.00"
Thursday, September 23, 2021 5:13 AM PDT

Simi Valley, California Climate Summary
Typical June Day

Normal High:    81.6°F (27.5°C)
Normal Low:    57.5°F (14.2°C)
Average:    69.0°F (20.5°C)

Hour    Temperature    Wind Speed    Humidity
12:00 AM    63°F (17°C)    2 mph    71%
1:00 AM    62°F (16°C)    2 mph    72%
2:00 AM    61°F (16°C)    1 mph    74%
3:00 AM    60°F (16°C)    1 mph    75%
4:00 AM    59°F (15°C)    2 mph    76%
5:00 AM    59°F (15°C)    2 mph    77%
6:00 AM    59°F (15°C)    2 mph    78%
7:00 AM    60°F (15°C)    1 mph    79%
8:00 AM    63°F (17°C)    2 mph    76%
9:00 AM    67°F (19°C)    2 mph    70%
10:00 AM    71°F (22°C)    3 mph    62%
11:00 AM    75°F (24°C)    4 mph    55%
12:00 PM    78°F (25°C)    5 mph    51%
1:00 PM    79°F (26°C)    7 mph    48%
2:00 PM    80°F (27°C)    7 mph    47%
3:00 PM    80°F (27°C)    7 mph    47%
4:00 PM    79°F (26°C)    7 mph    47%
5:00 PM    78°F (26°C)    7 mph    48%
6:00 PM    77°F (25°C)    6 mph    50%
7:00 PM    75°F (24°C)    5 mph    53%
8:00 PM    71°F (22°C)    4 mph    60%
9:00 PM    68°F (20°C)    2 mph    66%
10:00 PM    66°F (19°C)    2 mph    68%
11:00 PM    64°F (18°C)    2 mph    69%
 

The Simi Valley, California weather pages are a service of WeatherCurrents.
Copyright ©2021  WeatherCurrents. All rights reserved. - Submit questions and comments - Privacy Policy